Latest Weather Observations for Gannett Cay

IDQ60801

Issued at 2:12 pm EST Sunday 17 February 2019 (issued every 10 minutes, with the page automatically refreshed every 10 minutes)

About weather observations | Map of weather stations | Latest weather observations for QLD | Other Formats
Station Details ID: 200831 Name: GANNET CAY Lat: -21.98 Lon: 152.47 Height: 2.3 m
Data from the previous 72 hours. | See also: Recent months for locations in Queensland
Date/Time
EST
Temp
°C
App
Temp
°C
Dew
Point
°C
Rel
Hum
%
Delta-T
°C
Wind Press
QNH
hPa
Press
MSL
hPa
Rain since
9am
mm
Dir  Spd
km/h
Gust
km/h
Spd
kts
Gust
kts
17/02:00pm 27.2 - - - - S 37 43 20 23 1008.5 - -
17/01:30pm 27.2 - - - - SSE 37 43 20 23 1008.6 - -
17/01:29pm 27.2 - - - - SSE 37 - 20 - - 1008.8 -
17/01:00pm 27.1 - - - - SSE 39 44 21 24 1009.0 - -
17/12:30pm 27.1 - - - - SSE 37 43 20 23 1009.5 - -
17/12:29pm 27.3 - - - - SSE 37 - 20 - - 1009.6 -
17/12:00pm 27.0 - - - - SSE 37 41 20 22 1009.8 - -
17/11:30am 27.1 - - - - SSE 35 41 19 22 1010.2 - -
17/11:29am 27.1 - - - - SSE 35 - 19 - - 1010.3 -
17/11:00am 26.9 - - - - SSE 37 41 20 22 1010.5 - -
17/10:30am 27.1 - - - - SSE 32 35 17 19 1010.8 - -
17/10:29am 27.0 - - - - S 32 - 17 - - 1010.9 -
17/10:00am 27.0 - - - - SSE 33 39 18 21 1011.0 - -
17/09:30am 26.8 - - - - SSE 35 41 19 22 1011.0 - -
17/09:29am 26.8 - - - - SSE 35 - 19 - - 1011.1 -
17/09:00am 26.8 - - - - SSE 35 41 19 22 1010.9 - -
17/08:30am 26.8 - - - - SSE 41 46 22 25 1010.6 - -
17/08:29am 26.8 - - - - SSE 41 - 22 - - 1010.7 -
17/08:00am 26.5 - - - - SSE 39 46 21 25 1010.5 - -
17/07:30am 26.5 - - - - SE 41 48 22 26 1010.4 - -
17/07:29am 26.6 - - - - SSE 41 - 22 - - 1010.4 -
17/07:00am 26.6 - - - - SSE 39 46 21 25 1010.1 - -
17/06:30am 26.5 - - - - SE 41 48 22 26 1009.7 - -
17/06:29am 26.4 - - - - SE 41 - 22 - - 1009.8 -
17/06:00am 26.2 - - - - SE 41 48 22 26 1009.3 - -
17/05:30am 26.4 - - - - SE 41 48 22 26 1008.9 - -
17/05:29am 26.4 - - - - SE 41 - 22 - - 1009.2 -
17/05:00am 26.5 - - - - SE 44 52 24 28 1008.8 - -
17/04:30am 26.4 - - - - SE 44 54 24 29 1008.8 - -
17/04:29am 26.5 - - - - SE 44 - 24 - - 1009.1 -
17/04:00am 26.5 - - - - SE 44 52 24 28 1008.6 - -
17/03:30am 26.6 - - - - SE 44 57 24 31 1008.6 - -
17/03:29am 26.4 - - - - SE 44 - 24 - - 1008.9 -
17/03:00am 26.5 - - - - SE 46 54 25 29 1008.7 - -
17/02:30am 26.3 - - - - SSE 44 52 24 28 1008.9 - -
17/02:29am 26.6 - - - - SSE 44 - 24 - - 1009.2 -
17/02:00am 26.6 - - - - SSE 50 56 27 30 1009.0 - -
17/01:30am 26.7 - - - - SE 48 57 26 31 1009.5 - -
17/01:29am 26.5 - - - - SE 50 - 27 - - 1009.6 -
17/01:00am 26.8 - - - - SE 48 57 26 31 1009.8 - -
17/12:30am 26.4 - - - - SE 50 57 27 31 1010.3 - -
17/12:29am 26.4 - - - - SE 48 - 26 - - 1010.4 -
17/12:00am 25.5 - - - - SE 52 61 28 33 1010.8 - -
 
Date/Time
EST
Temp
°C
App
Temp
°C
Dew
Point
°C
Rel
Hum
%
Delta-T
°C
Wind Press
QNH
hPa
Press
MSL
hPa
Rain since
9am
mm
Dir  Spd
km/h
Gust
km/h
Spd
kts
Gust
kts
16/11:30pm 26.4 - - - - SE 43 52 23 28 1010.9 - -
16/11:29pm 26.4 - - - - SE 43 - 23 - - 1011.1 -
16/11:00pm 26.1 - - - - SE 39 46 21 25 1011.2 - -
16/10:30pm 26.7 - - - - SSE 46 56 25 30 1011.3 - -
16/10:29pm 26.7 - - - - SE 46 - 25 - - 1011.4 -
16/10:00pm 26.9 - - - - SSE 44 52 24 28 1011.5 - -
16/09:30pm 27.2 - - - - SE 43 52 23 28 1011.5 - -
16/09:29pm 26.9 - - - - SE 43 - 23 - - 1011.6 -
16/09:00pm 27.1 - - - - SE 48 52 26 28 1011.4 - -
16/08:30pm 26.8 - - - - SE 48 59 26 32 1011.1 - -
16/08:29pm 26.9 - - - - SE 48 - 26 - - 1011.2 -
16/08:00pm 26.9 - - - - SE 48 56 26 30 1010.9 - -
16/07:30pm 27.1 - - - - SE 46 56 25 30 1010.7 - -
16/07:29pm 26.8 - - - - SE 46 - 25 - - 1010.9 -
16/07:00pm 26.8 - - - - SE 46 52 25 28 1010.6 - -
16/06:30pm 27.0 - - - - SSE 46 54 25 29 1010.1 - -
16/06:29pm 27.0 - - - - SSE 44 - 24 - - 1010.2 -
16/06:00pm 27.3 - - - - SSE 46 52 25 28 1010.0 - -
16/05:30pm 27.3 - - - - SSE 48 56 26 30 1010.0 - -
16/05:29pm 27.2 - - - - SSE 48 - 26 - - 1010.1 -
16/05:00pm 27.2 - - - - SSE 46 54 25 29 1009.9 - -
16/04:30pm 27.1 - - - - SSE 46 56 25 30 1010.0 - -
16/04:29pm 27.3 - - - - SSE 46 - 25 - - 1010.1 -
16/04:00pm 27.3 - - - - SSE 44 54 24 29 1009.8 - -
16/03:30pm 27.3 - - - - SSE 43 50 23 27 1009.9 - -
16/03:29pm 27.3 - - - - SSE 43 - 23 - - 1010.0 -
16/03:00pm 27.5 - - - - SSE 44 50 24 27 1009.9 - -
16/02:30pm 27.2 - - - - SSE 43 50 23 27 1010.1 - -
16/02:29pm 27.3 - - - - SSE 43 - 23 - - 1010.2 -
16/02:00pm 27.2 - - - - SSE 41 46 22 25 1010.3 - -
16/01:30pm 27.4 - - - - SSE 43 48 23 26 1010.7 - -
16/01:29pm 27.4 - - - - SSE 44 - 24 - - 1010.8 -
16/01:00pm 27.3 - - - - SSE 41 50 22 27 1011.1 - -
16/12:30pm 27.3 - - - - SSE 44 50 24 27 1011.4 - -
16/12:29pm 27.5 - - - - SSE 44 - 24 - - 1011.5 -
16/12:00pm 27.4 - - - - SSE 43 52 23 28 1011.8 - -
16/11:30am 27.2 - - - - SSE 44 50 24 27 1012.0 - -
16/11:29am 27.2 - - - - SSE 44 - 24 - - 1012.1 -
16/11:00am 27.4 - - - - SSE 46 54 25 29 1012.2 - -
16/10:30am 27.4 - - - - SE 44 52 24 28 1012.5 - -
16/10:29am 27.6 - - - - SE 44 - 24 - - 1012.6 -
16/10:00am 27.5 - - - - SE 44 54 24 29 1012.6 - -
16/09:30am 27.5 - - - - SE 43 50 23 27 1012.7 - -
16/09:29am 27.5 - - - - SE 43 - 23 - - 1012.8 -
16/09:00am 27.3 - - - - SE 44 52 24 28 1012.7 - -
16/08:30am 27.4 - - - - SE 41 48 22 26 1012.5 - -
16/08:29am 27.3 - - - - SE 41 - 22 - - 1012.6 -
16/08:00am 27.5 - - - - SE 41 46 22 25 1012.2 - -
16/07:30am 27.0 - - - - SE 37 43 20 23 1012.0 - -
16/07:29am 27.1 - - - - SE 37 - 20 - - 1012.1 -
16/07:00am 27.3 - - - - SE 41 46 22 25 1011.9 - -
16/06:30am 27.2 - - - - SE 44 50 24 27 1011.5 - -
16/06:29am 27.0 - - - - SE 44 - 24 - - 1011.6 -
16/06:00am 27.1 - - - - SE 39 46 21 25 1011.3 - -
16/05:30am 27.2 - - - - SE 43 48 23 26 1011.2 - -
16/05:29am 27.0 - - - - SE 43 - 23 - - 1011.2 -
16/05:00am 27.0 - - - - SE 39 50 21 27 1011.0 - -
16/04:30am 26.9 - - - - SE 39 48 21 26 1010.7 - -
16/04:29am 27.0 - - - - SE 39 - 21 - - 1010.8 -
16/04:00am 26.8 - - - - SE 41 46 22 25 1010.3 - -
16/03:30am 26.9 - - - - SE 39 44 21 24 1010.3 - -
16/03:29am 26.7 - - - - SE 39 - 21 - - 1010.4 -
16/03:00am 26.8 - - - - SE 43 46 23 25 1010.4 - -
16/02:30am 27.0 - - - - SE 44 50 24 27 1010.7 - -
16/02:29am 27.1 - - - - SE 44 - 24 - - 1010.8 -
16/02:00am 26.9 - - - - SE 43 50 23 27 1011.0 - -
16/01:30am 26.9 - - - - SE 46 54 25 29 1011.4 - -
16/01:29am 27.0 - - - - SE 44 - 24 - - 1011.5 -
16/01:00am 26.9 - - - - SE 48 54 26 29 1011.6 - -
16/12:30am 27.1 - - - - SE 46 56 25 30 1011.6 - -
16/12:29am 27.0 - - - - SE 46 - 25 - - 1011.7 -
16/12:00am 27.0 - - - - SE 48 56 26 30 1011.7 - -
 
Date/Time
EST
Temp
°C
App
Temp
°C
Dew
Point
°C
Rel
Hum
%
Delta-T
°C
Wind Press
QNH
hPa
Press
MSL
hPa
Rain since
9am
mm
Dir  Spd
km/h
Gust
km/h
Spd
kts
Gust
kts
15/11:30pm 27.1 - - - - SE 48 57 26 31 1011.9 - -
15/11:29pm 27.2 - - - - SE 48 - 26 - - 1012.0 -
15/11:00pm 27.1 - - - - SE 50 57 27 31 1012.1 - -
15/10:30pm 27.2 - - - - SE 52 59 28 32 1012.4 - -
15/10:29pm 27.1 - - - - SE 52 - 28 - - 1012.4 -
15/10:00pm 27.1 - - - - SSE 50 59 27 32 1012.5 - -
15/09:30pm 27.2 - - - - SSE 52 57 28 31 1012.5 - -
15/09:29pm 27.1 - - - - SE 50 - 27 - - 1012.6 -
15/09:00pm 27.3 - - - - SE 48 61 26 33 1012.5 - -
15/08:30pm 27.2 - - - - SSE 50 57 27 31 1012.4 - -
15/08:29pm 27.1 - - - - SSE 48 - 26 - - 1012.5 -
15/08:00pm 27.4 - - - - SE 50 57 27 31 1012.3 - -
15/07:30pm 27.1 - - - - SE 48 57 26 31 1012.1 - -
15/07:29pm 27.2 - - - - SE 46 - 25 - - 1012.2 -
15/07:00pm 27.3 - - - - SSE 46 54 25 29 1011.8 - -
15/06:30pm 27.4 - - - - SE 46 54 25 29 1011.6 - -
15/06:29pm 27.2 - - - - SE 46 - 25 - - 1011.7 -
15/06:00pm 27.6 - - - - SE 46 54 25 29 1011.2 - -
15/05:30pm 27.2 - - - - SE 46 52 25 28 1011.1 - -
15/05:29pm 27.4 - - - - SE 46 - 25 - - 1011.2 -
15/05:00pm 27.6 - - - - SSE 43 48 23 26 1010.7 - -
15/04:30pm 27.6 - - - - SSE 41 48 22 26 1010.7 - -
15/04:29pm 27.5 - - - - SSE 41 - 22 - - 1010.8 -
15/04:00pm 27.6 - - - - SSE 43 48 23 26 1010.6 - -
15/03:30pm 27.6 - - - - SSE 43 50 23 27 1010.6 - -
15/03:29pm 27.6 - - - - SSE 43 - 23 - - 1010.7 -
15/03:00pm 27.6 - - - - SSE 43 48 23 26 1010.8 - -
15/02:30pm 27.7 - - - - SSE 44 50 24 27 1011.1 - -
15/02:29pm 27.6 - - - - SSE 44 - 24 - - 1011.2 -
15/02:00pm 27.7 - - - - SSE 43 48 23 26 1011.3 - -
15/01:30pm 27.6 - - - - SSE 44 50 24 27 1011.6 - -
15/01:29pm 27.8 - - - - SSE 44 - 24 - - 1011.8 -
15/01:00pm 27.9 - - - - SSE 41 46 22 25 1011.9 - -
15/12:30pm 27.5 - - - - SSE 39 46 21 25 1012.1 - -
15/12:29pm 27.8 - - - - SSE 39 - 21 - - 1012.2 -
15/12:00pm 27.8 - - - - SE 43 50 23 27 1012.4 - -
15/11:30am 27.8 - - - - SSE 39 46 21 25 1012.7 - -
15/11:29am 27.7 - - - - SE 39 - 21 - - 1012.8 -
15/11:00am 27.4 - - - - SE 41 46 22 25 1012.8 - -
15/10:30am 27.5 - - - - SSE 41 48 22 26 1012.8 - -
15/10:29am 27.5 - - - - SSE 41 - 22 - - 1012.9 -
15/10:00am 27.3 - - - - SE 44 52 24 28 1012.9 - -
15/09:30am 27.5 - - - - SE 41 46 22 25 1012.9 - -
15/09:29am 27.5 - - - - SE 41 - 22 - - 1013.1 -
15/09:00am 27.4 - - - - SE 41 48 22 26 1012.8 - -
15/08:30am 27.2 - - - - SE 43 48 23 26 1012.5 - -
15/08:29am 27.2 - - - - SE 43 - 23 - - 1012.6 -
15/08:00am 27.4 - - - - SE 43 50 23 27 1012.4 - -
15/07:30am 27.1 - - - - SE 43 46 23 25 1012.2 - -
15/07:29am 27.2 - - - - SE 41 - 22 - - 1012.3 -
15/07:00am 27.2 - - - - SE 43 48 23 26 1012.0 - -
15/06:30am 27.2 - - - - SE 41 46 22 25 1011.7 - -
15/06:29am 27.1 - - - - SE 41 - 22 - - 1011.7 -
15/06:00am 27.0 - - - - SE 41 46 22 25 1011.3 - -
15/05:30am 26.8 - - - - SSE 41 46 22 25 1011.0 - -
15/05:29am 26.9 - - - - SSE 41 - 22 - - 1011.1 -
15/05:00am 27.1 - - - - SE 37 44 20 24 1010.6 - -
15/04:30am 26.9 - - - - SE 39 46 21 25 1010.6 - -
15/04:29am 27.1 - - - - SE 39 - 21 - - 1010.7 -
15/04:00am 26.9 - - - - SE 37 44 20 24 1010.5 - -
15/03:30am 26.9 - - - - SE 37 43 20 23 1010.4 - -
15/03:29am 26.9 - - - - SE 37 - 20 - - 1010.5 -
15/03:00am 27.0 - - - - SE 37 41 20 22 1010.5 - -
15/02:30am 27.0 - - - - SE 41 44 22 24 1010.4 - -
15/02:29am 27.1 - - - - SE 41 - 22 - - 1010.5 -
15/02:00am 27.2 - - - - SE 39 44 21 24 1010.3 - -
15/01:30am 27.2 - - - - SE 37 44 20 24 1010.6 - -
15/01:29am 27.1 - - - - SE 39 - 21 - - 1010.7 -
15/01:00am 27.0 - - - - SE 37 43 20 23 1010.9 - -
15/12:30am 27.1 - - - - SE 39 44 21 24 1011.1 - -
15/12:29am 27.2 - - - - SE 39 - 21 - - 1011.1 -
15/12:00am 27.3 - - - - SE 39 46 21 25 1011.4 - -
 
Date/Time
EST
Temp
°C
App
Temp
°C
Dew
Point
°C
Rel
Hum
%
Delta-T
°C
Wind Press
QNH
hPa
Press
MSL
hPa
Rain since
9am
mm
Dir  Spd
km/h
Gust
km/h
Spd
kts
Gust
kts
14/11:30pm 27.3 - - - - SE 37 41 20 22 1011.5 - -
14/11:29pm 27.2 - - - - SE 35 - 19 - - 1011.7 -
14/11:00pm 27.1 - - - - SE 32 37 17 20 1012.1 - -
14/10:30pm 27.2 - - - - SE 33 37 18 20 1012.0 - -
14/10:29pm 27.2 - - - - SE 33 - 18 - - 1012.1 -
14/10:00pm 27.3 - - - - SE 33 37 18 20 1011.9 - -
14/09:30pm 27.2 - - - - SE 35 41 19 22 1011.8 - -
14/09:29pm 27.3 - - - - SE 35 - 19 - - 1011.9 -
14/09:00pm 27.1 - - - - ESE 35 39 19 21 1011.4 - -
14/08:30pm 27.3 - - - - ESE 37 43 20 23 1011.1 - -
14/08:29pm 27.2 - - - - ESE 37 - 20 - - 1011.1 -
14/08:00pm 27.4 - - - - ESE 41 46 22 25 1010.8 - -
14/07:30pm 27.5 - - - - ESE 39 44 21 24 1010.3 - -
14/07:29pm 27.4 - - - - ESE 37 - 20 - - 1010.4 -
14/07:00pm 27.2 - - - - ESE 35 43 19 23 1009.9 - -
14/06:30pm 27.3 - - - - ESE 33 37 18 20 1009.5 - -
14/06:29pm 27.3 - - - - ESE 33 - 18 - - 1009.6 -
14/06:00pm 27.5 - - - - ESE 33 39 18 21 1009.1 - -
14/05:30pm 27.6 - - - - SE 33 39 18 21 1008.8 - -
14/05:29pm 27.7 - - - - SE 32 - 17 - - 1009.0 -
14/05:00pm 27.7 - - - - SE 32 35 17 19 1008.6 - -
14/04:30pm 27.8 - - - - SE 32 37 17 20 1008.5 - -
14/04:29pm 27.7 - - - - SE 33 - 18 - - 1008.7 -
14/04:00pm 27.9 - - - - SE 30 33 16 18 1008.5 - -
14/03:30pm 28.0 - - - - SE 30 33 16 18 1008.5 - -
14/03:29pm 27.8 - - - - SE 30 - 16 - - 1008.7 -
14/03:00pm 28.1 - - - - SE 30 33 16 18 1008.3 - -
14/02:30pm 28.2 - - - - SE 28 32 15 17 1008.4 - -
14/02:29pm 27.9 - - - - SE 28 - 15 - - 1008.6 -

Other Formats:

Comma delimited format used in spreadsheet applications
http://www.bom.gov.au/fwo/IDQ60801/IDQ60801.94379.axf

JavaScript Object Notation format (JSON) in row-major order
http://www.bom.gov.au/fwo/IDQ60801/IDQ60801.94379.json